Time;durP1;ratioP1;P1;durP2;ratioP2;P2;SDS_P1;SDS_P2;PMS_P1;PMS_P2;Temp;Humidity;BMP_temperature;BMP_pressure;BME280_temperature;BME280_humidity;BME280_pressure;Samples;Min_cycle;Max_cycle;Signal;HPM_P1;HPM_P2
2023/12/26 00:01:57;;;;;;;0.20;0.10;;;;;;;19.95;45.46;100667.38;16104477;19;131109;-62
2023/12/26 00:07:19;;;;;;;1.10;0.35;;;;;;;19.91;45.64;100652.38;16107783;19;131371;-62
2023/12/26 00:12:42;;;;;;;1.80;0.30;;;;;;;19.89;45.64;100656.50;16100459;19;130365;-62
2023/12/26 00:18:04;;;;;;;1.45;0.43;;;;;;;19.86;45.80;100665.38;16105938;19;130385;-61
2023/12/26 00:23:26;;;;;;;2.00;0.40;;;;;;;19.83;45.83;100658.38;16099561;19;130668;-62
2023/12/26 00:28:49;;;;;;;0.63;0.20;;;;;;;19.80;45.57;100650.59;16102299;19;129316;-61
2023/12/26 00:34:11;;;;;;;0.57;0.20;;;;;;;19.77;45.35;100659.44;16104165;19;130486;-62
2023/12/26 00:39:34;;;;;;;0.55;0.38;;;;;;;19.75;45.57;100650.53;16104666;19;130461;-61
2023/12/26 00:44:56;;;;;;;0.20;0.20;;;;;;;19.71;45.83;100650.22;16106062;19;130045;-64
2023/12/26 00:50:18;;;;;;;0.47;0.22;;;;;;;19.69;45.60;100646.84;16103173;19;129644;-62
2023/12/26 00:55:40;;;;;;;0.43;0.20;;;;;;;19.65;45.52;100649.31;16103217;19;129458;-62
2023/12/26 01:01:02;;;;;;;0.68;0.20;;;;;;;19.63;45.64;100662.63;16103641;19;131164;-62
2023/12/26 01:06:24;;;;;;;1.55;0.20;;;;;;;19.61;45.28;100666.75;16104555;19;130212;-61
2023/12/26 01:11:46;;;;;;;0.30;0.20;;;;;;;19.58;45.68;100664.50;16100432;19;129539;-66
2023/12/26 01:17:09;;;;;;;0.30;0.20;;;;;;;19.55;45.51;100671.41;16099005;19;130533;-62
2023/12/26 01:22:31;;;;;;;0.30;0.30;;;;;;;19.53;45.71;100687.47;16102226;19;129854;-62
2023/12/26 01:27:53;;;;;;;0.52;0.13;;;;;;;19.51;45.14;100681.34;16118514;19;129503;-61
2023/12/26 01:33:15;;;;;;;1.33;0.47;;;;;;;19.49;45.21;100684.38;16118526;19;131154;-60
2023/12/26 01:38:37;;;;;;;0.10;0.10;;;;;;;19.47;45.62;100692.13;16117044;19;131564;-62
2023/12/26 01:43:59;;;;;;;0.82;0.10;;;;;;;19.45;45.48;100685.13;16117546;19;130231;-62
2023/12/26 01:49:21;;;;;;;0.43;0.17;;;;;;;19.43;45.27;100692.88;16132715;19;130058;-65
2023/12/26 01:54:44;;;;;;;0.30;0.20;;;;;;;19.41;45.72;100695.91;16128851;19;130249;-62
2023/12/26 02:00:07;;;;;;;0.40;0.20;;;;;;;19.41;45.60;100718.09;16116093;19;130931;-63
2023/12/26 02:05:29;;;;;;;0.35;0.30;;;;;;;19.38;45.60;100721.41;16120353;19;132013;-63
2023/12/26 02:10:52;;;;;;;0.43;0.10;;;;;;;19.37;45.63;100734.41;16122441;19;130864;-64
2023/12/26 02:16:21;;;;;;;0.35;0.25;;;;;;;19.36;45.66;100723.59;16129179;19;131241;-61
2023/12/26 02:21:43;;;;;;;0.80;0.20;;;;;;;19.32;45.75;100745.44;16126442;19;129736;-60
2023/12/26 02:27:05;;;;;;;0.73;0.10;;;;;;;19.32;45.28;100752.94;16128885;19;129955;-61
2023/12/26 02:32:30;;;;;;;0.77;0.13;;;;;;;19.31;45.55;100759.56;16136082;19;130943;-61
2023/12/26 02:37:53;;;;;;;0.73;0.22;;;;;;;19.29;45.68;100751.50;16126528;19;131405;-61
2023/12/26 02:43:15;;;;;;;0.50;0.10;;;;;;;19.26;45.27;100752.00;16118189;19;131385;-61
2023/12/26 02:48:37;;;;;;;0.30;0.15;;;;;;;19.25;45.46;100755.88;16117943;19;132313;-61
2023/12/26 02:53:59;;;;;;;0.20;0.10;;;;;;;19.24;45.36;100761.69;16116576;19;129879;-61
2023/12/26 02:59:21;;;;;;;0.30;0.15;;;;;;;19.22;45.64;100750.84;16122337;19;129631;-61
2023/12/26 03:04:43;;;;;;;0.38;0.13;;;;;;;19.21;45.59;100765.78;16119743;19;129916;-62
2023/12/26 03:10:09;;;;;;;0.35;0.20;;;;;;;19.20;45.50;100772.44;16111405;19;129162;-61
2023/12/26 03:15:31;;;;;;;0.10;0.10;;;;;;;19.18;45.78;100783.75;16110321;19;130641;-62
2023/12/26 03:20:53;;;;;;;0.40;0.15;;;;;;;19.17;45.68;100787.63;16112510;19;130585;-62
2023/12/26 03:26:15;;;;;;;0.13;0.08;;;;;;;19.15;45.46;100800.06;16109093;19;133695;-62
2023/12/26 03:31:45;;;;;;;0.05;0.05;;;;;;;19.16;45.28;100804.53;16113383;19;130130;-62
2023/12/26 03:37:07;;;;;;;0.75;0.22;;;;;;;19.12;45.62;100818.06;16108392;19;129656;-62
2023/12/26 03:42:29;;;;;;;0.43;0.10;;;;;;;19.11;45.33;100802.50;16109820;19;130075;-62
2023/12/26 03:47:52;;;;;;;1.42;0.20;;;;;;;19.11;45.83;100815.53;16106308;19;130264;-60
2023/12/26 03:53:15;;;;;;;0.52;0.20;;;;;;;19.08;45.55;100819.66;16110065;19;129837;-62
2023/12/26 03:58:36;;;;;;;0.25;0.10;;;;;;;19.08;45.88;100827.97;16114352;19;129664;-62
2023/12/26 04:03:59;;;;;;;0.50;0.15;;;;;;;19.06;45.64;100831.00;16107532;19;129985;-61
2023/12/26 04:09:21;;;;;;;0.65;0.10;;;;;;;19.06;45.87;100835.69;16109016;19;129576;-62
2023/12/26 04:14:43;;;;;;;0.20;0.10;;;;;;;19.04;45.66;100844.28;16111430;19;129902;-61
2023/12/26 04:20:05;;;;;;;0.70;0.10;;;;;;;19.02;45.77;100849.22;16106785;19;130951;-61
2023/12/26 04:25:27;;;;;;;0.28;0.10;;;;;;;19.02;45.74;100846.44;16105829;19;129934;-62
2023/12/26 04:30:49;;;;;;;0.32;0.10;;;;;;;19.01;45.61;100866.13;16106313;19;130207;-62
2023/12/26 04:36:11;;;;;;;0.30;0.10;;;;;;;19.00;45.92;100869.97;16106537;19;130516;-62
2023/12/26 04:41:33;;;;;;;0.22;0.10;;;;;;;18.99;45.75;100868.28;16103086;19;130201;-62
2023/12/26 04:46:55;;;;;;;0.40;0.20;;;;;;;18.97;45.91;100890.72;16107657;19;130524;-61
2023/12/26 04:52:18;;;;;;;0.17;0.13;;;;;;;18.96;45.73;100891.78;16106965;19;130173;-61
2023/12/26 04:57:40;;;;;;;0.63;0.20;;;;;;;18.95;45.67;100901.22;16108343;19;131273;-62
2023/12/26 05:03:02;;;;;;;2.17;0.30;;;;;;;18.94;45.79;100902.31;16124194;19;129740;-61
2023/12/26 05:08:25;;;;;;;0.25;0.10;;;;;;;18.93;45.51;100908.94;16122668;19;129663;-61
2023/12/26 05:13:47;;;;;;;0.75;0.22;;;;;;;18.91;45.46;100919.44;16118478;19;130094;-61
2023/12/26 05:19:09;;;;;;;0.40;0.13;;;;;;;18.90;45.54;100920.53;16116937;19;130892;-63
2023/12/26 05:24:34;;;;;;;0.60;0.20;;;;;;;18.90;45.55;100920.53;16122545;19;129209;-62
2023/12/26 05:30:12;;;;;;;0.57;0.20;;;;;;;18.88;46.07;100945.75;16116167;19;130429;-62
2023/12/26 05:35:34;;;;;;;0.88;0.20;;;;;;;18.87;46.07;100943.19;16120978;19;129586;-62
2023/12/26 05:40:56;;;;;;;1.10;0.25;;;;;;;18.85;45.88;100960.09;16116640;19;130913;-62
2023/12/26 05:46:20;;;;;;;0.55;0.20;;;;;;;18.85;45.73;100978.63;16117278;19;130598;-62
2023/12/26 05:51:43;;;;;;;0.20;0.10;;;;;;;18.85;45.97;100981.41;16115691;19;129846;-62
2023/12/26 05:57:05;;;;;;;0.40;0.13;;;;;;;18.84;45.78;100993.56;16118873;19;129632;-63
2023/12/26 06:02:28;;;;;;;0.35;0.17;;;;;;;18.83;45.74;100997.47;16118662;19;132270;-62
2023/12/26 06:07:51;;;;;;;1.25;0.20;;;;;;;18.83;46.03;101016.88;16121537;19;130102;-62
2023/12/26 06:13:13;;;;;;;1.48;0.30;;;;;;;18.94;46.54;101024.28;16111909;19;129992;-61
2023/12/26 06:18:35;;;;;;;0.77;0.10;;;;;;;19.10;46.24;101030.13;16108005;19;132794;-57
2023/12/26 06:23:57;;;;;;;1.55;0.15;;;;;;;19.21;45.56;101048.69;16117109;19;130547;-60
2023/12/26 06:29:19;;;;;;;0.73;0.40;;;;;;;19.30;45.63;101041.66;16117600;19;131938;-61
2023/12/26 06:34:41;;;;;;;4.38;0.30;;;;;;;19.40;45.39;101056.81;16117408;19;131389;-59
2023/12/26 06:40:04;;;;;;;6.57;1.50;;;;;;;19.49;46.03;101058.09;16114750;19;130283;-58
2023/12/26 06:45:26;;;;;;;4.35;0.80;;;;;;;19.57;45.69;101057.69;16117437;19;129601;-59
2023/12/26 06:50:49;;;;;;;1.45;0.40;;;;;;;19.64;45.43;101068.63;16111717;19;131467;-58
2023/12/26 06:56:11;;;;;;;2.65;0.40;;;;;;;19.66;45.04;101086.72;16110455;19;130144;-59
2023/12/26 07:01:33;;;;;;;1.92;0.50;;;;;;;19.67;45.00;101095.88;16111524;19;129973;-59
2023/12/26 07:06:55;;;;;;;1.77;0.40;;;;;;;19.66;44.89;101089.50;16108215;19;132247;-59
2023/12/26 07:12:17;;;;;;;1.92;0.40;;;;;;;19.65;44.83;101109.16;16110785;19;129550;-59
2023/12/26 07:17:39;;;;;;;3.92;0.70;;;;;;;19.64;44.74;101122.22;16111432;19;129750;-58
2023/12/26 07:23:02;;;;;;;2.05;0.68;;;;;;;19.61;44.59;101132.97;16108592;19;129574;-59
2023/12/26 07:28:24;;;;;;;4.68;0.85;;;;;;;19.58;44.91;101142.63;16111394;19;130273;-59
2023/12/26 07:33:47;;;;;;;1.52;0.45;;;;;;;19.55;44.87;101158.94;16105641;19;130253;-59
2023/12/26 07:39:12;;;;;;;2.15;0.52;;;;;;;19.52;44.46;101193.56;16108551;19;130042;-59
2023/12/26 07:44:35;;;;;;;2.42;0.63;;;;;;;19.47;44.46;101196.22;16108424;19;132628;-58
2023/12/26 07:49:57;;;;;;;1.30;0.60;;;;;;;19.45;44.74;101220.59;16107720;19;130677;-58
2023/12/26 07:55:19;;;;;;;1.73;0.40;;;;;;;19.41;44.88;101224.97;16110429;19;129345;-62
2023/12/26 08:00:41;;;;;;;4.95;0.80;;;;;;;19.40;45.07;101239.94;16106374;19;130100;-64
2023/12/26 08:06:04;;;;;;;7.55;1.00;;;;;;;19.44;44.55;101249.47;16109665;19;130180;-61
2023/12/26 08:11:26;;;;;;;11.95;0.85;;;;;;;19.48;44.61;101270.06;16107965;19;129840;-56
2023/12/26 08:16:48;;;;;;;9.45;0.90;;;;;;;19.52;44.32;101276.81;16110465;19;129969;-56
2023/12/26 08:22:11;;;;;;;4.72;0.95;;;;;;;19.54;44.20;101288.53;16108422;19;131277;-57
2023/12/26 08:27:33;;;;;;;10.90;0.80;;;;;;;19.61;44.19;101299.50;16107730;19;130392;-57
2023/12/26 08:32:55;;;;;;;8.20;0.80;;;;;;;19.73;44.32;101302.22;16108468;19;133823;-57
2023/12/26 08:38:18;;;;;;;5.43;0.50;;;;;;;19.88;44.15;101313.66;16107962;19;129540;-56
2023/12/26 08:43:40;;;;;;;3.72;0.85;;;;;;;20.07;43.50;101324.63;16106787;19;131416;-57
2023/12/26 08:49:03;;;;;;;3.60;0.60;;;;;;;20.32;43.58;101323.44;16099692;19;130109;-57
2023/12/26 08:54:25;;;;;;;5.18;0.90;;;;;;;20.52;43.40;101328.56;16100752;19;131127;-57
2023/12/26 08:59:48;;;;;;;2.22;0.60;;;;;;;20.66;42.83;101331.88;16103221;19;129959;-57
2023/12/26 09:05:11;;;;;;;5.55;0.80;;;;;;;20.72;43.02;101340.06;16105817;19;131481;-57
2023/12/26 09:10:33;;;;;;;3.10;0.68;;;;;;;20.73;42.89;101357.56;16109432;19;129722;-54
2023/12/26 09:15:58;;;;;;;3.70;0.90;;;;;;;20.71;42.05;101374.53;16100140;19;129338;-59
2023/12/26 09:21:23;;;;;;;6.28;1.20;;;;;;;20.69;42.67;101384.19;16102757;19;131019;-59
2023/12/26 09:26:45;;;;;;;7.60;1.17;;;;;;;20.63;42.90;101374.91;16101541;19;130752;-59
2023/12/26 09:32:07;;;;;;;8.48;1.20;;;;;;;20.58;42.62;101378.44;16098325;19;130474;-60
2023/12/26 09:37:34;;;;;;;3.47;0.77;;;;;;;20.51;42.96;101394.44;16106049;19;129636;-60
2023/12/26 09:43:02;;;;;;;3.50;0.88;;;;;;;20.48;42.87;101400.47;16103120;19;129904;-59
2023/12/26 09:48:25;;;;;;;9.27;1.42;;;;;;;20.45;43.54;101414.84;16118428;19;131474;-60
2023/12/26 09:53:54;;;;;;;6.43;1.30;;;;;;;20.42;43.66;101418.16;16111919;19;130735;-59
2023/12/26 09:59:19;;;;;;;5.47;1.00;;;;;;;20.37;43.91;101418.03;16118462;19;130193;-59
2023/12/26 10:04:41;;;;;;;9.43;1.52;;;;;;;20.34;43.60;101440.75;16120363;19;129973;-59
2023/12/26 10:10:05;;;;;;;7.22;1.15;;;;;;;20.31;44.39;101457.94;16114334;19;129850;-60
2023/12/26 10:15:27;;;;;;;7.78;0.98;;;;;;;20.27;44.38;101469.53;16117797;19;131961;-59
2023/12/26 10:20:49;;;;;;;5.13;1.23;;;;;;;20.25;44.50;101468.91;16118524;19;131188;-59
2023/12/26 10:26:12;;;;;;;5.15;1.13;;;;;;;20.23;44.49;101487.75;16118770;19;130280;-59
2023/12/26 10:31:34;;;;;;;7.95;1.10;;;;;;;20.22;45.00;101494.41;16120251;19;129648;-59
2023/12/26 10:36:58;;;;;;;7.68;1.17;;;;;;;20.21;45.14;101494.66;16120174;19;129477;-59
2023/12/26 10:42:20;;;;;;;9.00;1.30;;;;;;;20.21;45.11;101487.16;16113961;19;129939;-60
2023/12/26 10:47:46;;;;;;;7.97;1.00;;;;;;;20.20;44.57;101493.78;16114429;19;129786;-61
2023/12/26 10:53:16;;;;;;;6.60;1.23;;;;;;;20.20;44.93;101493.78;16111942;19;130571;-61
2023/12/26 10:58:40;;;;;;;6.10;1.40;;;;;;;20.17;44.73;101510.13;16112445;19;130610;-62
2023/12/26 13:53:21;;;;;;;5.25;1.48;;;;;;;20.03;43.11;101637.28;16120331;19;129759;-62
2023/12/26 13:59:21;;;;;;;4.50;1.20;;;;;;;20.09;43.08;101647.44;16117803;19;130672;-62
2023/12/26 14:05:21;;;;;;;5.72;1.27;;;;;;;20.15;43.04;101649.28;16118022;19;129771;-62
2023/12/26 14:11:22;;;;;;;4.10;1.20;;;;;;;20.19;43.06;101658.78;16114573;19;129510;-62
2023/12/26 14:17:21;;;;;;;3.92;1.20;;;;;;;20.23;43.01;101673.06;16116677;19;129499;-65
2023/12/26 14:23:21;;;;;;;7.57;1.20;;;;;;;20.23;43.49;101676.69;16115029;19;130933;-66
2023/12/26 14:29:20;;;;;;;10.73;1.27;;;;;;;20.24;43.48;101683.94;16119673;19;129942;-66
2023/12/26 14:35:19;;;;;;;9.40;1.38;;;;;;;20.22;43.78;101696.38;16113012;19;129686;-66
2023/12/26 14:41:19;;;;;;;6.80;1.45;;;;;;;20.20;44.26;101713.28;16117419;19;129629;-67
2023/12/26 14:47:18;;;;;;;5.75;0.90;;;;;;;20.14;44.14;101712.28;16118658;19;129682;-67
2023/12/26 14:53:17;;;;;;;4.65;0.90;;;;;;;20.10;44.78;101707.47;16115202;19;130746;-67
2023/12/26 14:59:16;;;;;;;9.20;1.40;;;;;;;20.07;44.87;101721.81;16110895;19;130560;-65
2023/12/26 15:04:39;;;;;;;9.90;1.40;;;;;;;20.01;44.45;101728.34;16115466;19;130434;-64
2023/12/26 15:10:01;;;;;;;7.63;2.42;;;;;;;19.98;44.72;101732.41;16110742;19;130382;-64
2023/12/26 15:15:23;;;;;;;10.50;1.33;;;;;;;19.96;44.65;101726.22;16116157;19;129648;-64
2023/12/26 15:20:45;;;;;;;13.05;1.83;;;;;;;19.91;44.81;101726.94;16113237;19;129701;-63
2023/12/26 15:26:16;;;;;;;4.93;1.42;;;;;;;19.90;44.62;101738.28;16113350;19;129677;-63
2023/12/26 15:31:38;;;;;;;4.93;1.17;;;;;;;19.85;45.01;101752.88;16113228;19;131017;-63
2023/12/26 15:37:01;;;;;;;5.70;0.93;;;;;;;19.82;45.01;101767.22;16113237;19;130609;-62
2023/12/26 15:42:23;;;;;;;3.10;1.00;;;;;;;19.80;45.05;101784.09;16112773;19;129751;-64
2023/12/26 15:47:45;;;;;;;5.43;1.10;;;;;;;19.77;45.33;101792.91;16107585;19;129963;-63
2023/12/26 15:53:07;;;;;;;8.63;1.15;;;;;;;19.76;45.84;101787.59;16108110;19;130495;-61
2023/12/26 15:58:29;;;;;;;6.15;1.42;;;;;;;19.78;45.77;101796.53;16111402;19;129687;-60
2023/12/26 16:03:55;;;;;;;5.97;1.20;;;;;;;19.80;45.85;101806.31;16109520;19;130498;-59
2023/12/26 16:09:18;;;;;;;9.68;1.50;;;;;;;19.79;45.82;101803.78;16104721;19;130386;-60
2023/12/26 16:14:40;;;;;;;15.55;1.77;;;;;;;19.81;45.75;101813.56;16100743;19;132820;-60
2023/12/26 16:20:03;;;;;;;7.28;1.20;;;;;;;19.86;45.72;101821.19;16102786;19;129801;-60
2023/12/26 16:25:25;;;;;;;6.85;1.20;;;;;;;19.95;45.94;101819.78;16108058;19;131066;-60
2023/12/26 16:30:47;;;;;;;4.43;1.00;;;;;;;20.04;45.63;101825.09;16109308;19;129647;-61
2023/12/26 16:36:10;;;;;;;5.70;1.33;;;;;;;20.15;46.17;101843.72;16108210;19;131095;-62
2023/12/26 16:41:32;;;;;;;9.25;1.67;;;;;;;20.24;45.88;101844.25;16106051;19;129713;-63
2023/12/26 16:46:54;;;;;;;5.22;1.20;;;;;;;20.32;45.64;101862.50;16106091;19;131543;-62
2023/12/26 16:52:19;;;;;;;6.13;1.42;;;;;;;20.36;45.50;101863.75;16110218;19;130075;-63
2023/12/26 16:57:41;;;;;;;5.20;1.30;;;;;;;20.37;45.42;101871.84;16112176;19;132782;-63
2023/12/26 17:03:03;;;;;;;17.50;4.03;;;;;;;20.37;46.17;101866.28;16119925;19;130492;-63
2023/12/26 17:08:25;;;;;;;11.00;2.53;;;;;;;20.35;46.26;101873.16;16121692;19;131702;-60
2023/12/26 17:13:48;;;;;;;10.52;2.67;;;;;;;20.35;46.63;101868.47;16116046;19;129890;-68
2023/12/26 17:19:11;;;;;;;21.05;2.97;;;;;;;20.39;46.87;101868.84;16126042;19;129781;-69
2023/12/26 17:24:33;;;;;;;11.15;2.78;;;;;;;20.47;47.14;101859.31;16124477;19;129799;-70
2023/12/26 17:29:55;;;;;;;9.60;2.72;;;;;;;20.58;47.58;101867.69;16125620;19;132664;-68
2023/12/26 17:35:17;;;;;;;14.60;3.22;;;;;;;20.68;47.36;101866.25;16121796;19;130577;-68
2023/12/26 17:40:39;;;;;;;23.95;3.42;;;;;;;20.75;48.16;101855.91;16119762;19;129894;-67
2023/12/26 17:46:02;;;;;;;15.32;3.35;;;;;;;20.87;48.06;101867.06;16119625;19;129817;-68
2023/12/26 17:51:24;;;;;;;14.88;2.80;;;;;;;21.00;47.91;101869.63;16121322;19;130251;-66
2023/12/26 17:56:47;;;;;;;19.67;3.25;;;;;;;21.09;47.52;101884.03;16114518;19;131232;-66
2023/12/26 18:02:11;;;;;;;17.35;2.88;;;;;;;21.18;47.85;101882.59;16111563;19;130452;-67
2023/12/26 18:07:36;;;;;;;11.13;2.93;;;;;;;21.27;47.69;101885.03;16111044;19;130938;-66
2023/12/26 18:12:58;;;;;;;9.20;2.65;;;;;;;21.35;47.64;101898.59;16115174;19;129961;-65
2023/12/26 18:18:20;;;;;;;14.57;3.05;;;;;;;21.42;47.98;101910.44;16114229;19;133493;-66
2023/12/26 18:23:43;;;;;;;14.20;3.38;;;;;;;21.46;47.86;101910.81;16116425;19;129953;-66
2023/12/26 18:29:05;;;;;;;20.95;3.45;;;;;;;21.50;48.03;101921.25;16110370;19;131234;-67
2023/12/26 18:34:27;;;;;;;17.85;3.78;;;;;;;21.60;47.91;101928.16;16112762;19;130688;-67
2023/12/26 18:39:49;;;;;;;11.52;3.20;;;;;;;21.67;47.54;101934.44;16111657;19;131354;-66
2023/12/26 18:45:12;;;;;;;16.70;3.50;;;;;;;21.68;48.11;101936.13;16113489;19;129484;-67
2023/12/26 18:50:34;;;;;;;17.38;3.53;;;;;;;21.69;48.37;101948.97;16110962;19;131459;-67
2023/12/26 18:55:57;;;;;;;13.45;3.63;;;;;;;21.73;48.14;101944.63;16111159;19;130405;-66
2023/12/26 19:01:19;;;;;;;14.38;3.60;;;;;;;21.89;48.53;101953.34;16111602;19;130851;-67
2023/12/26 19:06:41;;;;;;;16.25;2.95;;;;;;;22.09;47.77;101952.94;16110057;19;130964;-67
2023/12/26 19:12:06;;;;;;;14.63;3.08;;;;;;;22.28;47.61;101973.16;16115509;19;130310;-66
2023/12/26 19:17:29;;;;;;;24.38;3.42;;;;;;;22.42;47.93;101974.56;16106484;19;132136;-65
2023/12/26 19:22:53;;;;;;;17.05;3.38;;;;;;;22.57;48.26;101981.56;16106021;19;131321;-65
2023/12/26 19:28:17;;;;;;;23.70;4.07;;;;;;;22.64;47.65;101984.22;16108135;19;132088;-67
2023/12/26 19:33:40;;;;;;;28.70;4.32;;;;;;;22.70;48.32;101992.44;16110892;19;129625;-66
2023/12/26 19:39:03;;;;;;;30.90;4.72;;;;;;;22.74;48.19;101976.91;16110121;19;131095;-69
2023/12/26 19:44:27;;;;;;;31.05;3.67;;;;;;;22.75;48.18;101988.91;16108352;19;130131;-66
2023/12/26 19:49:49;;;;;;;29.73;4.38;;;;;;;22.72;48.28;101989.38;16111605;19;129808;-66
2023/12/26 19:55:12;;;;;;;25.40;3.92;;;;;;;22.68;48.47;101988.22;16113586;19;129332;-67
2023/12/26 20:00:34;;;;;;;26.20;4.07;;;;;;;22.63;48.61;101975.00;16116392;19;129816;-67
2023/12/26 20:05:56;;;;;;;21.17;3.53;;;;;;;22.58;49.04;101991.63;16110872;19;130477;-66
2023/12/26 20:11:21;;;;;;;17.50;4.27;;;;;;;22.51;48.85;101977.81;16109196;19;130602;-64
2023/12/26 20:16:45;;;;;;;25.42;3.30;;;;;;;22.44;48.94;101980.75;16107318;19;129960;-65
2023/12/26 20:22:07;;;;;;;18.05;3.28;;;;;;;22.36;49.22;101992.31;16095400;19;130885;-63
2023/12/26 20:27:29;;;;;;;24.73;4.00;;;;;;;22.23;49.22;101984.22;16109668;19;129831;-64
2023/12/26 20:32:52;;;;;;;19.05;3.83;;;;;;;22.08;49.11;101979.97;16106581;19;129579;-65
2023/12/26 20:38:14;;;;;;;23.10;4.05;;;;;;;22.00;49.41;101966.41;16106734;19;130663;-66
2023/12/26 20:43:36;;;;;;;17.38;3.42;;;;;;;21.94;49.22;101965.44;16108432;19;131037;-66
2023/12/26 20:48:59;;;;;;;20.95;3.40;;;;;;;21.88;49.51;101962.78;16108079;19;130698;-66
2023/12/26 20:54:22;;;;;;;14.27;3.30;;;;;;;21.86;49.22;101981.69;16102554;19;131766;-66
2023/12/26 20:59:44;;;;;;;18.95;3.28;;;;;;;21.85;49.05;101985.56;16104976;19;130416;-66
2023/12/26 21:05:07;;;;;;;20.40;3.38;;;;;;;21.85;49.05;101989.16;16104797;19;130002;-66
2023/12/26 21:10:29;;;;;;;11.85;2.83;;;;;;;21.85;49.03;101996.69;16105038;19;131431;-66
2023/12/26 21:15:52;;;;;;;18.30;3.25;;;;;;;21.80;48.93;101989.06;16101208;19;132005;-66
2023/12/26 21:21:14;;;;;;;16.67;3.58;;;;;;;21.72;48.79;101993.06;16101514;19;130076;-65
2023/12/26 21:26:36;;;;;;;24.17;3.30;;;;;;;21.65;48.69;101992.34;16097259;19;130452;-66
2023/12/26 21:31:59;;;;;;;23.27;2.92;;;;;;;21.56;49.08;101986.28;16098421;19;130855;-65
2023/12/26 21:37:21;;;;;;;18.67;3.03;;;;;;;21.48;48.80;101997.72;16101346;19;129739;-65
2023/12/26 21:42:43;;;;;;;14.57;3.20;;;;;;;21.38;49.00;101998.31;16113547;19;129623;-66
2023/12/26 21:48:06;;;;;;;25.98;3.85;;;;;;;21.29;49.34;102008.13;16118727;19;130698;-65
2023/12/26 21:53:28;;;;;;;19.00;3.00;;;;;;;21.18;49.38;102016.16;16118448;19;131027;-65
2023/12/26 21:58:50;;;;;;;14.70;2.55;;;;;;;21.10;49.68;102022.06;16112804;19;130840;-65
2023/12/26 22:04:12;;;;;;;12.93;2.60;;;;;;;21.00;49.58;102028.19;16117588;19;130713;-65
2023/12/26 22:09:36;;;;;;;17.73;2.40;;;;;;;20.93;49.65;102029.38;16119507;19;130784;-65
2023/12/26 22:14:58;;;;;;;10.23;2.42;;;;;;;20.83;50.03;102033.56;16113505;19;129584;-65
2023/12/26 22:20:37;;;;;;;16.02;2.83;;;;;;;20.75;49.94;102018.06;16109418;19;132440;-67
2023/12/26 22:26:00;;;;;;;10.23;2.10;;;;;;;20.67;49.91;102014.75;16108375;19;130356;-66
2023/12/26 22:31:22;;;;;;;15.25;2.30;;;;;;;20.61;50.14;101999.84;16107934;19;132203;-65
2023/12/26 22:36:45;;;;;;;10.00;2.47;;;;;;;20.54;50.22;102015.75;16116846;19;130281;-65
2023/12/26 22:42:07;;;;;;;7.93;2.28;;;;;;;20.50;50.04;102020.94;16112603;19;130703;-65
2023/12/26 22:47:29;;;;;;;9.93;2.30;;;;;;;20.46;50.36;102030.78;16115123;19;131243;-66
2023/12/26 22:52:51;;;;;;;10.15;2.22;;;;;;;20.42;50.22;102030.41;16113865;19;131034;-65
2023/12/26 22:58:14;;;;;;;9.75;2.53;;;;;;;20.37;49.88;102026.63;16116162;19;129804;-66
2023/12/26 23:03:37;;;;;;;10.02;3.03;;;;;;;20.30;50.28;102021.16;16114515;19;132126;-66
2023/12/26 23:09:00;;;;;;;7.82;2.13;;;;;;;20.23;50.04;102021.22;16111908;19;131792;-65
2023/12/26 23:14:22;;;;;;;10.32;2.40;;;;;;;20.18;50.20;102029.41;16109708;19;131327;-66
2023/12/26 23:19:45;;;;;;;7.80;2.17;;;;;;;20.13;50.42;102015.34;16112869;19;129432;-65
2023/12/26 23:25:10;;;;;;;9.98;2.17;;;;;;;20.07;50.34;102005.16;16110054;19;130481;-67
2023/12/26 23:30:35;;;;;;;7.95;1.88;;;;;;;20.03;50.69;102006.72;16107775;19;129851;-64
2023/12/26 23:35:57;;;;;;;6.47;2.00;;;;;;;19.97;50.92;102000.13;16109200;19;130926;-65
2023/12/26 23:41:19;;;;;;;8.88;2.40;;;;;;;19.94;50.61;102008.91;16113412;19;130695;-65
2023/12/26 23:46:44;;;;;;;7.32;2.35;;;;;;;19.88;50.83;102019.00;16108807;19;130956;-65
2023/12/26 23:52:06;;;;;;;5.97;2.15;;;;;;;19.83;50.50;102010.47;16108991;19;129827;-64
2023/12/26 23:57:29;;;;;;;5.97;1.70;;;;;;;19.79;50.96;102000.94;16111870;19;130885;-65
